createdAt,value
2023-01-17T00:00:45.072Z,98367.97
2023-01-17T00:06:21.479Z,98374.50
2023-01-17T00:11:25.278Z,98382.16
2023-01-17T00:16:30.323Z,98400.91
2023-01-17T00:21:51.891Z,98403.72
2023-01-17T00:27:12.793Z,98409.09
2023-01-17T00:32:16.793Z,98425.16
2023-01-17T00:37:19.369Z,98433.41
2023-01-17T00:42:22.027Z,98442.03
2023-01-17T00:47:44.675Z,98443.84
2023-01-17T00:53:06.147Z,98449.53
2023-01-17T00:58:27.951Z,98451.22
2023-01-17T01:03:50.669Z,98457.75
2023-01-17T01:09:12.275Z,98453.47
2023-01-17T01:14:33.496Z,98459.09
2023-01-17T01:19:56.165Z,98463.72
2023-01-17T01:25:17.515Z,98467.97
2023-01-17T01:30:38.912Z,98470.44
2023-01-17T01:35:44.023Z,98476.97
2023-01-17T01:40:50.049Z,98487.19
2023-01-17T01:45:57.010Z,98485.84
2023-01-17T01:51:04.741Z,98497.63
2023-01-17T01:56:13.897Z,98506.91
2023-01-17T02:01:18.576Z,98526.81
2023-01-17T02:06:31.404Z,98558.63
2023-01-17T02:11:37.172Z,98572.81
2023-01-17T02:16:55.033Z,98559.84
2023-01-17T02:22:07.158Z,98557.91
2023-01-17T02:27:25.331Z,98562.38
2023-01-17T02:32:44.176Z,98547.66
2023-01-17T02:37:57.593Z,98540.84
2023-01-17T02:43:05.713Z,98549.03
2023-01-17T02:48:14.150Z,98547.53
2023-01-17T02:53:31.367Z,98546.00
2023-01-17T02:58:55.184Z,98551.91
2023-01-17T03:04:04.545Z,98561.47
2023-01-17T03:09:09.877Z,98559.84
2023-01-17T03:14:13.583Z,98576.88
2023-01-17T03:19:18.695Z,98579.44
2023-01-17T03:24:22.374Z,98584.69
2023-01-17T03:29:26.148Z,98588.88
2023-01-17T03:34:31.236Z,98584.44
2023-01-17T03:39:34.989Z,98593.25
2023-01-17T03:44:38.684Z,98591.69
2023-01-17T03:49:43.765Z,98594.28
2023-01-17T03:54:48.496Z,98597.13
2023-01-17T03:59:52.213Z,98605.72
2023-01-17T04:04:57.473Z,98597.69
2023-01-17T04:10:01.180Z,98595.06
2023-01-17T04:15:05.463Z,98594.00
2023-01-17T04:20:17.331Z,98597.22
2023-01-17T04:25:21.048Z,98602.44
2023-01-17T04:30:24.918Z,98602.44
2023-01-17T04:35:30.784Z,98598.13
2023-01-17T04:40:34.513Z,98596.63
2023-01-17T04:45:38.780Z,98593.00
2023-01-17T04:50:43.831Z,98599.22
2023-01-17T04:55:47.866Z,98597.69
2023-01-17T05:00:51.816Z,98605.97
2023-01-17T05:05:56.962Z,98601.69
2023-01-17T05:11:00.693Z,98605.03
2023-01-17T05:16:04.704Z,98604.63
2023-01-17T05:21:09.888Z,98618.72
2023-01-17T05:26:13.915Z,98624.59
2023-01-17T05:31:17.873Z,98638.06
2023-01-17T05:36:22.992Z,98629.19
2023-01-17T05:41:26.741Z,98628.59
2023-01-17T05:46:30.712Z,98624.03
2023-01-17T05:51:37.840Z,98618.66
2023-01-17T05:56:41.579Z,98627.97
2023-01-17T06:01:46.137Z,98642.34
2023-01-17T06:06:51.226Z,98641.47
2023-01-17T06:11:54.919Z,98657.59
2023-01-17T06:16:58.699Z,98654.19
2023-01-17T06:22:04.700Z,98655.44
2023-01-17T06:27:09.919Z,98658.22
2023-01-17T06:32:14.205Z,98649.38
2023-01-17T06:37:19.263Z,98647.41
2023-01-17T06:42:23.552Z,98652.47
2023-01-17T06:47:27.342Z,98663.69
2023-01-17T06:52:32.506Z,98664.63
2023-01-17T06:57:36.604Z,98660.28
2023-01-17T07:02:40.328Z,98660.03
2023-01-17T07:07:46.147Z,98660.00
2023-01-17T07:12:49.915Z,98665.38
2023-01-17T07:17:53.700Z,98666.53
2023-01-17T07:22:58.853Z,98669.94
2023-01-17T07:28:02.548Z,98670.66
2023-01-17T07:33:06.437Z,98664.50
2023-01-17T07:38:15.691Z,98673.56
2023-01-17T07:43:19.447Z,98667.63
2023-01-17T07:48:25.857Z,98673.28
2023-01-17T07:53:33.008Z,98675.81
2023-01-17T07:58:36.879Z,98679.06
2023-01-17T08:03:40.845Z,98685.41
2023-01-17T08:08:46.066Z,98689.84
2023-01-17T08:13:50.015Z,98683.63
2023-01-17T08:18:54.117Z,98695.13
2023-01-17T08:23:59.400Z,98692.69
2023-01-17T08:29:03.192Z,98696.56
2023-01-17T08:34:06.941Z,98700.31
2023-01-17T08:39:13.504Z,98699.13
2023-01-17T08:44:17.316Z,98701.41
2023-01-17T08:49:21.154Z,98703.00
2023-01-17T08:54:26.274Z,98696.56
2023-01-17T08:59:30.037Z,98703.00
2023-01-17T09:04:33.909Z,98708.31
2023-01-17T09:09:39.026Z,98699.38
2023-01-17T09:14:42.742Z,98697.06
2023-01-17T09:19:48.732Z,98699.06
2023-01-17T09:24:54.285Z,98704.25
2023-01-17T09:29:58.033Z,98701.72
2023-01-17T09:35:01.808Z,98694.66
2023-01-17T09:40:08.739Z,98701.59
2023-01-17T09:45:18.973Z,98701.94
2023-01-17T09:50:30.567Z,98704.09
2023-01-17T09:55:43.961Z,98709.38
2023-01-17T10:01:00.195Z,98713.72
2023-01-17T10:06:17.367Z,98719.59
2023-01-17T10:11:36.890Z,98714.59
2023-01-17T10:16:50.278Z,98720.44
2023-01-17T10:22:10.195Z,98721.13
2023-01-17T10:27:23.171Z,98724.22
2023-01-17T10:32:32.415Z,98728.19
2023-01-17T10:37:41.428Z,98732.75
2023-01-17T10:42:53.116Z,98738.97
2023-01-17T10:48:04.398Z,98738.84
2023-01-17T10:53:12.376Z,98739.75
2023-01-17T10:58:17.593Z,98733.38
2023-01-17T11:03:21.797Z,98724.75
2023-01-17T11:08:25.677Z,98710.78
2023-01-17T11:13:32.626Z,98701.38
2023-01-17T11:18:38.829Z,98702.19
2023-01-17T11:23:43.819Z,98707.94
2023-01-17T11:28:49.071Z,98706.37
2023-01-17T11:34:07.579Z,98696.75
2023-01-17T11:39:27.388Z,98689.78
2023-01-17T11:44:34.350Z,98703.84
2023-01-17T11:49:38.222Z,98690.72
2023-01-17T11:54:45.613Z,98690.16
2023-01-17T11:59:52.583Z,98678.56
2023-01-17T12:05:08.405Z,98672.78
2023-01-17T12:10:20.447Z,98676.59
2023-01-17T12:15:45.840Z,98673.91
2023-01-17T12:21:00.405Z,98673.94
2023-01-17T12:26:19.623Z,98673.16
2023-01-17T12:31:33.543Z,98668.28
2023-01-17T12:36:44.122Z,98665.78
2023-01-17T12:42:00.504Z,98667.97
2023-01-17T12:47:07.282Z,98666.41
2023-01-17T12:52:22.576Z,98654.69
2023-01-17T12:57:30.542Z,98663.09
2023-01-17T13:02:40.119Z,98654.03
2023-01-17T13:07:48.704Z,98662.66
2023-01-17T13:12:54.938Z,98659.91
2023-01-17T13:18:06.477Z,98649.28
2023-01-17T13:23:17.016Z,98644.56
2023-01-17T13:28:36.091Z,98648.84
2023-01-17T13:33:58.906Z,98645.84
2023-01-17T13:39:18.012Z,98640.59
2023-01-17T13:44:28.251Z,98651.22
2023-01-17T13:49:45.455Z,98652.09
2023-01-17T13:54:53.982Z,98669.00
2023-01-17T13:59:59.315Z,98677.41
2023-01-17T14:05:16.212Z,98676.03
2023-01-17T14:10:31.457Z,98681.59
2023-01-17T14:15:48.061Z,98677.97
2023-01-17T14:21:07.151Z,98676.84
2023-01-17T14:26:22.176Z,98673.66
2023-01-17T14:31:27.328Z,98669.91
2023-01-17T14:36:34.570Z,98678.84
2023-01-17T14:41:38.825Z,98678.69
2023-01-17T14:46:49.178Z,98679.00
2023-01-17T14:52:06.317Z,98681.31
2023-01-17T14:57:25.589Z,98692.75
2023-01-17T15:02:29.474Z,98689.44
2023-01-17T15:07:34.741Z,98698.84
2023-01-17T15:12:39.030Z,98705.13
2023-01-17T15:17:42.864Z,98707.97
2023-01-17T15:22:48.133Z,98713.00
2023-01-17T15:27:52.389Z,98715.38
2023-01-17T15:32:56.173Z,98717.62
2023-01-17T15:38:01.990Z,98707.06
2023-01-17T15:43:06.617Z,98713.53
2023-01-17T15:48:34.731Z,98718.91
2023-01-17T15:53:40.699Z,98713.00
2023-01-17T15:58:45.051Z,98719.91
2023-01-17T16:03:55.503Z,98716.25
2023-01-17T16:09:00.626Z,98725.75
2023-01-17T16:14:07.522Z,98720.97
2023-01-17T16:19:11.254Z,98727.34
2023-01-17T16:24:16.735Z,98726.06
2023-01-17T16:29:20.464Z,98724.78
2023-01-17T16:34:24.843Z,98733.63
2023-01-17T16:39:30.061Z,98739.78
2023-01-17T16:44:34.630Z,98747.12
2023-01-17T16:49:38.636Z,98756.06
2023-01-17T16:54:43.730Z,98753.91
2023-01-17T16:59:50.990Z,98758.69
2023-01-17T17:04:54.934Z,98759.06
2023-01-17T17:10:00.078Z,98769.56
2023-01-17T17:15:03.998Z,98766.75
2023-01-17T17:20:11.485Z,98774.81
2023-01-17T17:25:16.994Z,98783.13
2023-01-17T17:30:21.020Z,98787.75
2023-01-17T17:35:24.782Z,98799.34
2023-01-17T17:40:29.942Z,98798.16
2023-01-17T17:45:33.752Z,98805.44
2023-01-17T17:50:37.522Z,98816.22
2023-01-17T17:55:42.650Z,98814.34
2023-01-17T18:00:46.566Z,98824.03
2023-01-17T18:05:50.353Z,98833.22
2023-01-17T18:11:00.451Z,98840.63
2023-01-17T18:16:07.575Z,98853.03
2023-01-17T18:21:13.639Z,98850.03
2023-01-17T18:26:20.842Z,98862.62
2023-01-17T18:31:27.229Z,98863.13
2023-01-17T18:36:31.098Z,98870.59
2023-01-17T18:41:36.551Z,98883.81
2023-01-17T18:46:42.190Z,98878.44
2023-01-17T18:51:51.110Z,98886.56
2023-01-17T18:56:57.039Z,98900.97
2023-01-17T19:02:01.195Z,98909.97
2023-01-17T19:07:05.193Z,98904.72
2023-01-17T19:12:10.284Z,98917.94
2023-01-17T19:17:14.303Z,98916.97
2023-01-17T19:22:18.332Z,98924.28
2023-01-17T19:27:23.827Z,98919.66
2023-01-17T19:32:27.679Z,98916.91
2023-01-17T19:37:31.872Z,98919.47
2023-01-17T19:42:36.986Z,98932.19
2023-01-17T19:47:41.243Z,98925.56
2023-01-17T19:52:45.349Z,98934.78
2023-01-17T19:57:50.880Z,98939.00
2023-01-17T20:02:54.784Z,98946.63
2023-01-17T20:07:58.977Z,98948.94
2023-01-17T20:13:05.065Z,98948.69
2023-01-17T20:18:08.937Z,98938.47
2023-01-17T20:23:13.085Z,98945.03
2023-01-17T20:28:18.184Z,98949.16
2023-01-17T20:33:23.182Z,98947.09
2023-01-17T20:38:30.664Z,98949.37
2023-01-17T20:43:35.887Z,98962.91
2023-01-17T20:48:45.653Z,98955.88
2023-01-17T20:53:53.255Z,98958.53
2023-01-17T20:58:58.536Z,98957.31
2023-01-17T21:04:03.149Z,98964.63
2023-01-17T21:09:08.651Z,98969.63
2023-01-17T21:14:14.061Z,98978.91
2023-01-17T21:19:17.974Z,98973.03
2023-01-17T21:24:21.785Z,98968.19
2023-01-17T21:29:29.080Z,98976.69
2023-01-17T21:34:34.590Z,98961.62
2023-01-17T21:39:39.553Z,98959.25
2023-01-17T21:44:45.259Z,98956.06
2023-01-17T21:49:48.951Z,98951.84
2023-01-17T21:55:10.334Z,98955.88
2023-01-17T22:00:16.738Z,98970.13
2023-01-17T22:05:20.607Z,98965.03
2023-01-17T22:10:24.324Z,98966.88
2023-01-17T22:15:29.537Z,98970.13
2023-01-17T22:20:33.381Z,98973.53
2023-01-17T22:25:37.540Z,98978.47
2023-01-17T22:30:42.663Z,98977.94
2023-01-17T22:35:46.420Z,98986.84
2023-01-17T22:40:50.636Z,98985.78
2023-01-17T22:46:01.812Z,98983.12
2023-01-17T22:51:07.806Z,98989.63
2023-01-17T22:56:14.117Z,98992.47
2023-01-17T23:01:20.982Z,98992.34
2023-01-17T23:06:27.249Z,99004.91
2023-01-17T23:11:43.800Z,99013.16
2023-01-17T23:17:08.948Z,99016.13
2023-01-17T23:22:19.185Z,99010.00
2023-01-17T23:27:42.698Z,99014.47
2023-01-17T23:32:50.185Z,99014.75
2023-01-17T23:38:11.776Z,99016.31
2023-01-17T23:43:24.677Z,99015.19
2023-01-17T23:48:29.821Z,99012.44
2023-01-17T23:53:33.776Z,99008.00
2023-01-17T23:58:37.531Z,99006.41
